sensor_id;sensor_type;location;lat;lon;timestamp;P1;durP1;ratioP1;P2;durP2;ratioP2
14858;SDS011;7521;51.700;6.874;2024-01-10T00:03:03;9.88;;;5.55;;
14858;SDS011;7521;51.700;6.874;2024-01-10T00:06:09;8.97;;;4.47;;
14858;SDS011;7521;51.700;6.874;2024-01-10T00:09:15;13.13;;;5.37;;
14858;SDS011;7521;51.700;6.874;2024-01-10T00:12:20;11.70;;;5.10;;
14858;SDS011;7521;51.700;6.874;2024-01-10T00:15:25;14.40;;;6.47;;
14858;SDS011;7521;51.700;6.874;2024-01-10T00:18:31;10.67;;;5.50;;
14858;SDS011;7521;51.700;6.874;2024-01-10T00:21:36;12.27;;;5.90;;
14858;SDS011;7521;51.700;6.874;2024-01-10T00:24:42;10.57;;;5.70;;
14858;SDS011;7521;51.700;6.874;2024-01-10T00:27:47;8.43;;;4.82;;
14858;SDS011;7521;51.700;6.874;2024-01-10T00:30:52;11.23;;;4.60;;
14858;SDS011;7521;51.700;6.874;2024-01-10T00:33:57;10.10;;;4.67;;
14858;SDS011;7521;51.700;6.874;2024-01-10T00:37:02;8.38;;;4.30;;
14858;SDS011;7521;51.700;6.874;2024-01-10T00:40:08;9.33;;;4.80;;
14858;SDS011;7521;51.700;6.874;2024-01-10T00:43:13;9.60;;;4.97;;
14858;SDS011;7521;51.700;6.874;2024-01-10T00:46:18;9.60;;;5.10;;
14858;SDS011;7521;51.700;6.874;2024-01-10T00:49:23;11.18;;;5.35;;
14858;SDS011;7521;51.700;6.874;2024-01-10T00:52:28;12.05;;;5.30;;
14858;SDS011;7521;51.700;6.874;2024-01-10T00:55:34;13.30;;;5.83;;
14858;SDS011;7521;51.700;6.874;2024-01-10T00:58:39;12.05;;;5.57;;
14858;SDS011;7521;51.700;6.874;2024-01-10T01:01:44;12.18;;;5.50;;
14858;SDS011;7521;51.700;6.874;2024-01-10T01:04:49;8.38;;;4.95;;
14858;SDS011;7521;51.700;6.874;2024-01-10T01:07:54;9.43;;;4.33;;
14858;SDS011;7521;51.700;6.874;2024-01-10T01:11:00;9.02;;;4.57;;
14858;SDS011;7521;51.700;6.874;2024-01-10T01:14:05;9.32;;;4.72;;
14858;SDS011;7521;51.700;6.874;2024-01-10T01:17:10;9.50;;;4.32;;
14858;SDS011;7521;51.700;6.874;2024-01-10T01:20:15;7.30;;;4.30;;
14858;SDS011;7521;51.700;6.874;2024-01-10T01:23:20;8.87;;;4.30;;
14858;SDS011;7521;51.700;6.874;2024-01-10T01:26:26;9.90;;;4.30;;
14858;SDS011;7521;51.700;6.874;2024-01-10T01:29:31;9.88;;;4.65;;
14858;SDS011;7521;51.700;6.874;2024-01-10T01:32:36;9.53;;;4.80;;
14858;SDS011;7521;51.700;6.874;2024-01-10T01:35:41;10.63;;;5.17;;
14858;SDS011;7521;51.700;6.874;2024-01-10T01:38:46;9.33;;;4.40;;
14858;SDS011;7521;51.700;6.874;2024-01-10T01:41:52;8.52;;;4.70;;
14858;SDS011;7521;51.700;6.874;2024-01-10T01:44:57;10.15;;;4.90;;
14858;SDS011;7521;51.700;6.874;2024-01-10T01:48:02;10.50;;;4.97;;
14858;SDS011;7521;51.700;6.874;2024-01-10T01:51:07;13.00;;;5.00;;
14858;SDS011;7521;51.700;6.874;2024-01-10T01:54:14;11.80;;;5.27;;
14858;SDS011;7521;51.700;6.874;2024-01-10T01:57:19;10.70;;;4.97;;
14858;SDS011;7521;51.700;6.874;2024-01-10T02:00:24;10.70;;;5.20;;
14858;SDS011;7521;51.700;6.874;2024-01-10T02:03:32;11.30;;;5.57;;
14858;SDS011;7521;51.700;6.874;2024-01-10T02:06:38;9.87;;;5.07;;
14858;SDS011;7521;51.700;6.874;2024-01-10T02:09:43;13.20;;;5.43;;
14858;SDS011;7521;51.700;6.874;2024-01-10T02:12:49;12.63;;;4.90;;
14858;SDS011;7521;51.700;6.874;2024-01-10T02:15:54;12.10;;;4.93;;
14858;SDS011;7521;51.700;6.874;2024-01-10T02:18:59;12.87;;;5.90;;
14858;SDS011;7521;51.700;6.874;2024-01-10T02:22:06;10.20;;;4.87;;
14858;SDS011;7521;51.700;6.874;2024-01-10T02:25:12;11.83;;;5.47;;
14858;SDS011;7521;51.700;6.874;2024-01-10T02:28:17;12.77;;;5.40;;
14858;SDS011;7521;51.700;6.874;2024-01-10T02:31:22;11.53;;;5.13;;
14858;SDS011;7521;51.700;6.874;2024-01-10T02:34:29;12.30;;;5.63;;
14858;SDS011;7521;51.700;6.874;2024-01-10T02:37:34;12.00;;;5.03;;
14858;SDS011;7521;51.700;6.874;2024-01-10T02:40:39;12.10;;;5.23;;
14858;SDS011;7521;51.700;6.874;2024-01-10T02:43:44;11.70;;;5.72;;
14858;SDS011;7521;51.700;6.874;2024-01-10T02:46:50;11.88;;;5.03;;
14858;SDS011;7521;51.700;6.874;2024-01-10T02:49:55;10.23;;;4.80;;
14858;SDS011;7521;51.700;6.874;2024-01-10T02:53:00;13.48;;;5.82;;
14858;SDS011;7521;51.700;6.874;2024-01-10T02:56:05;10.07;;;4.90;;
14858;SDS011;7521;51.700;6.874;2024-01-10T02:59:10;15.20;;;5.50;;
14858;SDS011;7521;51.700;6.874;2024-01-10T03:02:16;13.35;;;5.65;;
14858;SDS011;7521;51.700;6.874;2024-01-10T03:05:21;11.85;;;5.63;;
14858;SDS011;7521;51.700;6.874;2024-01-10T03:08:26;12.18;;;5.75;;
14858;SDS011;7521;51.700;6.874;2024-01-10T03:11:31;13.13;;;5.68;;
14858;SDS011;7521;51.700;6.874;2024-01-10T03:14:38;12.70;;;5.40;;
14858;SDS011;7521;51.700;6.874;2024-01-10T03:17:43;10.45;;;5.00;;
14858;SDS011;7521;51.700;6.874;2024-01-10T03:20:48;12.55;;;5.75;;
14858;SDS011;7521;51.700;6.874;2024-01-10T03:23:56;10.63;;;5.03;;
14858;SDS011;7521;51.700;6.874;2024-01-10T03:27:03;12.03;;;5.20;;
14858;SDS011;7521;51.700;6.874;2024-01-10T03:30:08;11.67;;;5.20;;
14858;SDS011;7521;51.700;6.874;2024-01-10T03:33:13;12.47;;;5.53;;
14858;SDS011;7521;51.700;6.874;2024-01-10T03:36:18;12.20;;;6.23;;
14858;SDS011;7521;51.700;6.874;2024-01-10T03:39:24;10.83;;;5.50;;
14858;SDS011;7521;51.700;6.874;2024-01-10T03:42:38;11.90;;;5.57;;
14858;SDS011;7521;51.700;6.874;2024-01-10T03:45:43;11.73;;;5.67;;
14858;SDS011;7521;51.700;6.874;2024-01-10T03:48:48;11.00;;;5.57;;
14858;SDS011;7521;51.700;6.874;2024-01-10T03:51:54;11.33;;;5.20;;
14858;SDS011;7521;51.700;6.874;2024-01-10T03:54:59;12.77;;;5.67;;
14858;SDS011;7521;51.700;6.874;2024-01-10T03:58:04;11.95;;;5.47;;
14858;SDS011;7521;51.700;6.874;2024-01-10T04:01:09;9.67;;;5.13;;
14858;SDS011;7521;51.700;6.874;2024-01-10T04:04:15;11.25;;;5.13;;
14858;SDS011;7521;51.700;6.874;2024-01-10T04:07:20;9.30;;;5.13;;
14858;SDS011;7521;51.700;6.874;2024-01-10T04:10:25;9.67;;;4.83;;
14858;SDS011;7521;51.700;6.874;2024-01-10T04:13:31;15.38;;;6.07;;
14858;SDS011;7521;51.700;6.874;2024-01-10T04:16:36;13.33;;;5.67;;
14858;SDS011;7521;51.700;6.874;2024-01-10T04:19:41;12.48;;;5.53;;
14858;SDS011;7521;51.700;6.874;2024-01-10T04:22:46;12.20;;;5.85;;
14858;SDS011;7521;51.700;6.874;2024-01-10T04:25:52;12.60;;;5.60;;
14858;SDS011;7521;51.700;6.874;2024-01-10T04:28:57;11.18;;;5.20;;
14858;SDS011;7521;51.700;6.874;2024-01-10T04:32:02;14.17;;;5.40;;
14858;SDS011;7521;51.700;6.874;2024-01-10T04:35:07;11.47;;;5.37;;
14858;SDS011;7521;51.700;6.874;2024-01-10T04:38:13;12.73;;;5.45;;
14858;SDS011;7521;51.700;6.874;2024-01-10T04:41:18;12.20;;;6.13;;
14858;SDS011;7521;51.700;6.874;2024-01-10T04:44:24;9.73;;;5.10;;
14858;SDS011;7521;51.700;6.874;2024-01-10T04:47:29;13.30;;;5.17;;
14858;SDS011;7521;51.700;6.874;2024-01-10T04:50:34;10.23;;;5.03;;
14858;SDS011;7521;51.700;6.874;2024-01-10T04:53:40;14.87;;;6.47;;
14858;SDS011;7521;51.700;6.874;2024-01-10T04:56:45;12.80;;;5.40;;
14858;SDS011;7521;51.700;6.874;2024-01-10T04:59:50;11.40;;;5.00;;
14858;SDS011;7521;51.700;6.874;2024-01-10T05:02:55;12.13;;;5.60;;
14858;SDS011;7521;51.700;6.874;2024-01-10T05:06:00;12.57;;;5.85;;
14858;SDS011;7521;51.700;6.874;2024-01-10T05:09:06;15.07;;;6.05;;
14858;SDS011;7521;51.700;6.874;2024-01-10T05:12:11;12.57;;;5.80;;
14858;SDS011;7521;51.700;6.874;2024-01-10T05:15:16;13.33;;;5.63;;
14858;SDS011;7521;51.700;6.874;2024-01-10T05:18:22;13.63;;;5.95;;
14858;SDS011;7521;51.700;6.874;2024-01-10T05:21:27;11.18;;;5.78;;
14858;SDS011;7521;51.700;6.874;2024-01-10T05:24:32;10.75;;;5.22;;
14858;SDS011;7521;51.700;6.874;2024-01-10T05:27:37;12.53;;;5.63;;
14858;SDS011;7521;51.700;6.874;2024-01-10T05:30:42;10.52;;;5.32;;
14858;SDS011;7521;51.700;6.874;2024-01-10T05:33:48;10.57;;;4.80;;
14858;SDS011;7521;51.700;6.874;2024-01-10T05:36:53;10.93;;;5.00;;
14858;SDS011;7521;51.700;6.874;2024-01-10T05:39:58;12.40;;;5.93;;
14858;SDS011;7521;51.700;6.874;2024-01-10T05:43:04;12.40;;;5.80;;
14858;SDS011;7521;51.700;6.874;2024-01-10T05:46:09;11.63;;;6.05;;
14858;SDS011;7521;51.700;6.874;2024-01-10T05:49:14;11.87;;;5.73;;
14858;SDS011;7521;51.700;6.874;2024-01-10T05:52:20;12.63;;;6.07;;
14858;SDS011;7521;51.700;6.874;2024-01-10T05:55:27;13.03;;;5.87;;
14858;SDS011;7521;51.700;6.874;2024-01-10T05:58:32;14.50;;;6.20;;
14858;SDS011;7521;51.700;6.874;2024-01-10T06:01:37;12.98;;;6.13;;
14858;SDS011;7521;51.700;6.874;2024-01-10T06:04:45;14.60;;;7.70;;
14858;SDS011;7521;51.700;6.874;2024-01-10T06:07:50;14.60;;;6.97;;
14858;SDS011;7521;51.700;6.874;2024-01-10T06:10:55;12.95;;;6.72;;
14858;SDS011;7521;51.700;6.874;2024-01-10T06:14:01;11.70;;;5.82;;
14858;SDS011;7521;51.700;6.874;2024-01-10T06:17:06;13.83;;;6.17;;
14858;SDS011;7521;51.700;6.874;2024-01-10T06:20:11;11.48;;;6.20;;
14858;SDS011;7521;51.700;6.874;2024-01-10T06:23:16;15.07;;;6.10;;
14858;SDS011;7521;51.700;6.874;2024-01-10T06:26:22;13.00;;;6.40;;
14858;SDS011;7521;51.700;6.874;2024-01-10T06:29:27;16.30;;;5.95;;
14858;SDS011;7521;51.700;6.874;2024-01-10T06:32:32;13.53;;;6.50;;
14858;SDS011;7521;51.700;6.874;2024-01-10T06:35:38;13.97;;;6.80;;
14858;SDS011;7521;51.700;6.874;2024-01-10T06:38:43;15.47;;;6.90;;
14858;SDS011;7521;51.700;6.874;2024-01-10T06:41:48;17.13;;;8.20;;
14858;SDS011;7521;51.700;6.874;2024-01-10T06:44:54;15.97;;;7.87;;
14858;SDS011;7521;51.700;6.874;2024-01-10T06:47:59;14.30;;;6.87;;
14858;SDS011;7521;51.700;6.874;2024-01-10T06:51:06;15.65;;;7.22;;
14858;SDS011;7521;51.700;6.874;2024-01-10T06:54:14;19.93;;;7.23;;
14858;SDS011;7521;51.700;6.874;2024-01-10T06:57:19;18.10;;;7.03;;
14858;SDS011;7521;51.700;6.874;2024-01-10T07:00:24;14.75;;;6.85;;
14858;SDS011;7521;51.700;6.874;2024-01-10T07:03:29;14.33;;;6.80;;
14858;SDS011;7521;51.700;6.874;2024-01-10T07:06:35;13.45;;;6.60;;
14858;SDS011;7521;51.700;6.874;2024-01-10T07:09:40;15.50;;;7.28;;
14858;SDS011;7521;51.700;6.874;2024-01-10T07:12:45;16.67;;;7.60;;
14858;SDS011;7521;51.700;6.874;2024-01-10T07:15:51;16.83;;;7.43;;
14858;SDS011;7521;51.700;6.874;2024-01-10T07:18:57;28.20;;;16.60;;
14858;SDS011;7521;51.700;6.874;2024-01-10T07:22:04;17.67;;;9.80;;
14858;SDS011;7521;51.700;6.874;2024-01-10T07:25:10;19.08;;;8.80;;
14858;SDS011;7521;51.700;6.874;2024-01-10T07:28:19;19.13;;;7.97;;
14858;SDS011;7521;51.700;6.874;2024-01-10T07:31:24;15.63;;;8.20;;
14858;SDS011;7521;51.700;6.874;2024-01-10T07:34:29;20.02;;;9.52;;
14858;SDS011;7521;51.700;6.874;2024-01-10T07:37:37;16.00;;;8.00;;
14858;SDS011;7521;51.700;6.874;2024-01-10T07:40:43;19.00;;;8.97;;
14858;SDS011;7521;51.700;6.874;2024-01-10T07:43:48;16.58;;;9.23;;
14858;SDS011;7521;51.700;6.874;2024-01-10T07:46:53;21.27;;;9.57;;
14858;SDS011;7521;51.700;6.874;2024-01-10T07:50:00;21.33;;;8.60;;
14858;SDS011;7521;51.700;6.874;2024-01-10T07:53:05;20.92;;;9.38;;
14858;SDS011;7521;51.700;6.874;2024-01-10T07:56:10;22.07;;;8.93;;
14858;SDS011;7521;51.700;6.874;2024-01-10T07:59:17;20.80;;;9.80;;
14858;SDS011;7521;51.700;6.874;2024-01-10T08:02:23;19.00;;;8.73;;
14858;SDS011;7521;51.700;6.874;2024-01-10T08:05:28;16.03;;;8.07;;
14858;SDS011;7521;51.700;6.874;2024-01-10T08:08:33;17.65;;;8.18;;
14858;SDS011;7521;51.700;6.874;2024-01-10T08:11:39;15.50;;;8.15;;
14858;SDS011;7521;51.700;6.874;2024-01-10T08:14:44;22.85;;;9.50;;
14858;SDS011;7521;51.700;6.874;2024-01-10T08:17:51;19.27;;;9.23;;
14858;SDS011;7521;51.700;6.874;2024-01-10T08:20:56;17.60;;;9.50;;
14858;SDS011;7521;51.700;6.874;2024-01-10T08:24:01;23.35;;;10.30;;
14858;SDS011;7521;51.700;6.874;2024-01-10T08:27:07;21.90;;;9.33;;
14858;SDS011;7521;51.700;6.874;2024-01-10T08:30:12;21.47;;;9.47;;
14858;SDS011;7521;51.700;6.874;2024-01-10T08:33:18;19.87;;;8.50;;
14858;SDS011;7521;51.700;6.874;2024-01-10T08:36:23;21.20;;;9.88;;
14858;SDS011;7521;51.700;6.874;2024-01-10T08:39:29;18.90;;;8.57;;
14858;SDS011;7521;51.700;6.874;2024-01-10T08:42:35;21.23;;;8.83;;
14858;SDS011;7521;51.700;6.874;2024-01-10T08:45:40;19.23;;;9.20;;
14858;SDS011;7521;51.700;6.874;2024-01-10T08:48:46;17.77;;;8.77;;
14858;SDS011;7521;51.700;6.874;2024-01-10T08:51:52;29.13;;;9.53;;
14858;SDS011;7521;51.700;6.874;2024-01-10T08:54:58;19.83;;;11.73;;
14858;SDS011;7521;51.700;6.874;2024-01-10T08:58:03;21.02;;;9.38;;
14858;SDS011;7521;51.700;6.874;2024-01-10T09:01:08;18.87;;;8.83;;
14858;SDS011;7521;51.700;6.874;2024-01-10T09:04:14;17.30;;;8.77;;
14858;SDS011;7521;51.700;6.874;2024-01-10T09:07:20;22.30;;;9.85;;
14858;SDS011;7521;51.700;6.874;2024-01-10T09:10:26;29.30;;;9.77;;
14858;SDS011;7521;51.700;6.874;2024-01-10T09:13:33;25.93;;;9.40;;
14858;SDS011;7521;51.700;6.874;2024-01-10T09:16:39;19.50;;;8.73;;
14858;SDS011;7521;51.700;6.874;2024-01-10T09:19:44;19.92;;;9.43;;
14858;SDS011;7521;51.700;6.874;2024-01-10T09:22:49;18.80;;;9.90;;
14858;SDS011;7521;51.700;6.874;2024-01-10T09:25:56;21.00;;;9.60;;
14858;SDS011;7521;51.700;6.874;2024-01-10T09:29:02;26.10;;;10.93;;
14858;SDS011;7521;51.700;6.874;2024-01-10T09:32:07;21.97;;;10.30;;
14858;SDS011;7521;51.700;6.874;2024-01-10T09:35:12;20.60;;;9.60;;
14858;SDS011;7521;51.700;6.874;2024-01-10T09:38:18;23.07;;;9.83;;
14858;SDS011;7521;51.700;6.874;2024-01-10T09:41:23;19.05;;;9.32;;
14858;SDS011;7521;51.700;6.874;2024-01-10T09:44:29;20.80;;;9.97;;
14858;SDS011;7521;51.700;6.874;2024-01-10T09:47:34;27.67;;;9.97;;
14858;SDS011;7521;51.700;6.874;2024-01-10T09:50:41;22.20;;;9.77;;
14858;SDS011;7521;51.700;6.874;2024-01-10T09:53:47;23.37;;;10.63;;
14858;SDS011;7521;51.700;6.874;2024-01-10T09:56:54;21.37;;;10.90;;
14858;SDS011;7521;51.700;6.874;2024-01-10T10:00:00;19.53;;;9.90;;
14858;SDS011;7521;51.700;6.874;2024-01-10T10:03:09;22.03;;;10.60;;
14858;SDS011;7521;51.700;6.874;2024-01-10T10:06:17;26.07;;;10.83;;
14858;SDS011;7521;51.700;6.874;2024-01-10T10:09:22;22.93;;;10.43;;
14858;SDS011;7521;51.700;6.874;2024-01-10T10:12:46;24.57;;;11.73;;
14858;SDS011;7521;51.700;6.874;2024-01-10T10:16:01;24.13;;;11.20;;
14858;SDS011;7521;51.700;6.874;2024-01-10T10:19:07;20.90;;;10.50;;
14858;SDS011;7521;51.700;6.874;2024-01-10T10:22:14;24.50;;;10.97;;
14858;SDS011;7521;51.700;6.874;2024-01-10T10:25:19;22.10;;;10.23;;
14858;SDS011;7521;51.700;6.874;2024-01-10T10:28:29;20.33;;;10.80;;
14858;SDS011;7521;51.700;6.874;2024-01-10T10:31:36;23.80;;;10.90;;
14858;SDS011;7521;51.700;6.874;2024-01-10T10:34:41;20.85;;;10.07;;
14858;SDS011;7521;51.700;6.874;2024-01-10T10:37:50;23.83;;;11.68;;
14858;SDS011;7521;51.700;6.874;2024-01-10T10:40:55;20.17;;;10.80;;
14858;SDS011;7521;51.700;6.874;2024-01-10T10:44:02;22.53;;;11.23;;
14858;SDS011;7521;51.700;6.874;2024-01-10T10:47:09;21.87;;;10.83;;
14858;SDS011;7521;51.700;6.874;2024-01-10T10:50:20;19.30;;;10.80;;
14858;SDS011;7521;51.700;6.874;2024-01-10T10:53:26;22.60;;;10.87;;
14858;SDS011;7521;51.700;6.874;2024-01-10T10:56:32;23.13;;;11.53;;
14858;SDS011;7521;51.700;6.874;2024-01-10T10:59:37;23.37;;;11.53;;
14858;SDS011;7521;51.700;6.874;2024-01-10T11:02:44;22.93;;;10.90;;
14858;SDS011;7521;51.700;6.874;2024-01-10T11:05:49;24.47;;;10.23;;
14858;SDS011;7521;51.700;6.874;2024-01-10T11:09:00;38.20;;;12.83;;
14858;SDS011;7521;51.700;6.874;2024-01-10T11:12:10;21.53;;;10.63;;
14858;SDS011;7521;51.700;6.874;2024-01-10T11:15:24;21.73;;;10.90;;
14858;SDS011;7521;51.700;6.874;2024-01-10T11:21:53;21.10;;;10.97;;
14858;SDS011;7521;51.700;6.874;2024-01-10T11:25:01;26.00;;;12.50;;
14858;SDS011;7521;51.700;6.874;2024-01-10T11:28:06;22.48;;;11.25;;
14858;SDS011;7521;51.700;6.874;2024-01-10T11:31:12;21.10;;;10.47;;
14858;SDS011;7521;51.700;6.874;2024-01-10T11:34:22;24.53;;;11.83;;
14858;SDS011;7521;51.700;6.874;2024-01-10T11:37:38;22.27;;;12.10;;
14858;SDS011;7521;51.700;6.874;2024-01-10T11:40:46;23.10;;;11.50;;
14858;SDS011;7521;51.700;6.874;2024-01-10T11:47:22;20.87;;;10.60;;
14858;SDS011;7521;51.700;6.874;2024-01-10T11:50:27;20.13;;;10.73;;
14858;SDS011;7521;51.700;6.874;2024-01-10T11:53:39;20.37;;;10.83;;
14858;SDS011;7521;51.700;6.874;2024-01-10T11:56:44;22.40;;;11.60;;
14858;SDS011;7521;51.700;6.874;2024-01-10T11:59:51;22.43;;;11.30;;
14858;SDS011;7521;51.700;6.874;2024-01-10T12:02:57;21.30;;;11.10;;
14858;SDS011;7521;51.700;6.874;2024-01-10T12:06:02;21.43;;;10.87;;
14858;SDS011;7521;51.700;6.874;2024-01-10T12:09:08;21.80;;;10.93;;
14858;SDS011;7521;51.700;6.874;2024-01-10T12:12:13;22.53;;;10.97;;
14858;SDS011;7521;51.700;6.874;2024-01-10T12:15:19;20.43;;;10.90;;
14858;SDS011;7521;51.700;6.874;2024-01-10T12:18:24;21.10;;;11.32;;
14858;SDS011;7521;51.700;6.874;2024-01-10T12:21:29;25.77;;;11.70;;
14858;SDS011;7521;51.700;6.874;2024-01-10T12:24:44;24.10;;;11.27;;
14858;SDS011;7521;51.700;6.874;2024-01-10T12:27:53;23.20;;;11.10;;
14858;SDS011;7521;51.700;6.874;2024-01-10T12:30:58;23.00;;;11.20;;
14858;SDS011;7521;51.700;6.874;2024-01-10T12:34:03;25.00;;;11.27;;
14858;SDS011;7521;51.700;6.874;2024-01-10T12:37:10;24.42;;;11.25;;
14858;SDS011;7521;51.700;6.874;2024-01-10T12:40:15;21.70;;;11.60;;
14858;SDS011;7521;51.700;6.874;2024-01-10T12:43:20;21.10;;;11.15;;
14858;SDS011;7521;51.700;6.874;2024-01-10T12:46:25;21.27;;;11.48;;
14858;SDS011;7521;51.700;6.874;2024-01-10T12:49:31;22.58;;;11.30;;
14858;SDS011;7521;51.700;6.874;2024-01-10T12:52:36;24.03;;;10.93;;
14858;SDS011;7521;51.700;6.874;2024-01-10T12:55:44;28.00;;;11.83;;
14858;SDS011;7521;51.700;6.874;2024-01-10T12:58:49;23.10;;;11.02;;
14858;SDS011;7521;51.700;6.874;2024-01-10T13:01:55;23.92;;;11.55;;
14858;SDS011;7521;51.700;6.874;2024-01-10T13:05:03;22.92;;;10.65;;
14858;SDS011;7521;51.700;6.874;2024-01-10T13:08:09;22.17;;;10.77;;
14858;SDS011;7521;51.700;6.874;2024-01-10T13:11:15;21.63;;;11.70;;
14858;SDS011;7521;51.700;6.874;2024-01-10T13:14:20;22.97;;;11.03;;
14858;SDS011;7521;51.700;6.874;2024-01-10T13:17:25;25.67;;;11.80;;
14858;SDS011;7521;51.700;6.874;2024-01-10T13:20:31;24.17;;;12.13;;
14858;SDS011;7521;51.700;6.874;2024-01-10T13:23:36;21.10;;;10.60;;
14858;SDS011;7521;51.700;6.874;2024-01-10T13:26:41;22.63;;;12.80;;
14858;SDS011;7521;51.700;6.874;2024-01-10T13:29:46;22.65;;;10.75;;
14858;SDS011;7521;51.700;6.874;2024-01-10T13:32:51;20.77;;;10.70;;
14858;SDS011;7521;51.700;6.874;2024-01-10T13:35:56;31.90;;;14.00;;
14858;SDS011;7521;51.700;6.874;2024-01-10T13:39:02;22.20;;;11.52;;
14858;SDS011;7521;51.700;6.874;2024-01-10T13:42:08;25.53;;;11.93;;
14858;SDS011;7521;51.700;6.874;2024-01-10T13:45:15;27.57;;;13.30;;
14858;SDS011;7521;51.700;6.874;2024-01-10T13:48:22;23.10;;;12.23;;
14858;SDS011;7521;51.700;6.874;2024-01-10T13:51:27;23.67;;;11.05;;
14858;SDS011;7521;51.700;6.874;2024-01-10T13:54:32;22.02;;;11.85;;
14858;SDS011;7521;51.700;6.874;2024-01-10T13:57:37;24.40;;;11.03;;
14858;SDS011;7521;51.700;6.874;2024-01-10T14:00:42;25.13;;;11.40;;
14858;SDS011;7521;51.700;6.874;2024-01-10T14:03:47;24.73;;;12.10;;
14858;SDS011;7521;51.700;6.874;2024-01-10T14:06:53;23.52;;;10.57;;
14858;SDS011;7521;51.700;6.874;2024-01-10T14:09:59;23.70;;;12.10;;
14858;SDS011;7521;51.700;6.874;2024-01-10T14:13:04;23.73;;;11.27;;
14858;SDS011;7521;51.700;6.874;2024-01-10T14:16:09;22.27;;;10.10;;
14858;SDS011;7521;51.700;6.874;2024-01-10T14:19:15;23.57;;;10.87;;
14858;SDS011;7521;51.700;6.874;2024-01-10T14:22:24;21.37;;;10.80;;
14858;SDS011;7521;51.700;6.874;2024-01-10T14:25:30;22.50;;;11.10;;
14858;SDS011;7521;51.700;6.874;2024-01-10T14:28:35;22.33;;;10.67;;
14858;SDS011;7521;51.700;6.874;2024-01-10T14:31:40;19.15;;;10.43;;
14858;SDS011;7521;51.700;6.874;2024-01-10T14:34:46;21.47;;;10.40;;
14858;SDS011;7521;51.700;6.874;2024-01-10T14:37:51;20.20;;;10.73;;
14858;SDS011;7521;51.700;6.874;2024-01-10T14:40:58;23.20;;;11.37;;
14858;SDS011;7521;51.700;6.874;2024-01-10T14:44:03;22.40;;;10.80;;
14858;SDS011;7521;51.700;6.874;2024-01-10T14:47:08;24.80;;;10.48;;
14858;SDS011;7521;51.700;6.874;2024-01-10T14:50:14;26.13;;;12.47;;
14858;SDS011;7521;51.700;6.874;2024-01-10T14:53:19;26.17;;;11.43;;
14858;SDS011;7521;51.700;6.874;2024-01-10T14:56:24;26.90;;;11.95;;
14858;SDS011;7521;51.700;6.874;2024-01-10T14:59:29;21.60;;;10.70;;
14858;SDS011;7521;51.700;6.874;2024-01-10T15:02:34;23.83;;;11.25;;
14858;SDS011;7521;51.700;6.874;2024-01-10T15:05:42;23.52;;;11.70;;
14858;SDS011;7521;51.700;6.874;2024-01-10T15:08:47;23.67;;;11.60;;
14858;SDS011;7521;51.700;6.874;2024-01-10T15:11:52;23.10;;;11.55;;
14858;SDS011;7521;51.700;6.874;2024-01-10T15:14:58;25.13;;;11.23;;
14858;SDS011;7521;51.700;6.874;2024-01-10T15:18:05;20.67;;;10.57;;
14858;SDS011;7521;51.700;6.874;2024-01-10T15:21:11;24.73;;;11.40;;
14858;SDS011;7521;51.700;6.874;2024-01-10T15:24:17;22.73;;;10.83;;
14858;SDS011;7521;51.700;6.874;2024-01-10T15:27:22;25.93;;;12.83;;
14858;SDS011;7521;51.700;6.874;2024-01-10T15:30:27;22.67;;;10.93;;
14858;SDS011;7521;51.700;6.874;2024-01-10T15:33:33;22.38;;;11.18;;
14858;SDS011;7521;51.700;6.874;2024-01-10T15:36:39;20.63;;;10.63;;
14858;SDS011;7521;51.700;6.874;2024-01-10T15:39:45;23.93;;;11.77;;
14858;SDS011;7521;51.700;6.874;2024-01-10T15:42:50;23.53;;;12.07;;
14858;SDS011;7521;51.700;6.874;2024-01-10T15:45:55;23.13;;;13.50;;
14858;SDS011;7521;51.700;6.874;2024-01-10T15:49:01;25.30;;;12.50;;
14858;SDS011;7521;51.700;6.874;2024-01-10T15:52:06;29.90;;;12.90;;
14858;SDS011;7521;51.700;6.874;2024-01-10T15:55:12;28.83;;;11.87;;
14858;SDS011;7521;51.700;6.874;2024-01-10T15:58:17;22.35;;;11.80;;
14858;SDS011;7521;51.700;6.874;2024-01-10T16:01:23;20.13;;;11.23;;
14858;SDS011;7521;51.700;6.874;2024-01-10T16:04:28;22.00;;;11.90;;
14858;SDS011;7521;51.700;6.874;2024-01-10T16:07:33;25.03;;;12.20;;
14858;SDS011;7521;51.700;6.874;2024-01-10T16:10:38;23.83;;;11.85;;
14858;SDS011;7521;51.700;6.874;2024-01-10T16:13:44;22.73;;;10.80;;
14858;SDS011;7521;51.700;6.874;2024-01-10T16:16:50;25.17;;;11.60;;
14858;SDS011;7521;51.700;6.874;2024-01-10T16:19:55;20.45;;;11.30;;
14858;SDS011;7521;51.700;6.874;2024-01-10T16:23:00;20.88;;;10.88;;
14858;SDS011;7521;51.700;6.874;2024-01-10T16:26:06;22.47;;;11.33;;
14858;SDS011;7521;51.700;6.874;2024-01-10T16:29:11;21.60;;;10.43;;
14858;SDS011;7521;51.700;6.874;2024-01-10T16:32:16;27.30;;;11.53;;
14858;SDS011;7521;51.700;6.874;2024-01-10T16:35:21;23.02;;;11.40;;
14858;SDS011;7521;51.700;6.874;2024-01-10T16:38:26;21.80;;;11.13;;
14858;SDS011;7521;51.700;6.874;2024-01-10T16:41:31;26.88;;;11.65;;
14858;SDS011;7521;51.700;6.874;2024-01-10T16:44:37;23.77;;;11.07;;
14858;SDS011;7521;51.700;6.874;2024-01-10T16:47:44;21.53;;;10.90;;
14858;SDS011;7521;51.700;6.874;2024-01-10T16:50:49;32.85;;;15.40;;
14858;SDS011;7521;51.700;6.874;2024-01-10T16:53:55;25.38;;;12.93;;
14858;SDS011;7521;51.700;6.874;2024-01-10T16:57:00;21.92;;;11.25;;
14858;SDS011;7521;51.700;6.874;2024-01-10T17:00:05;24.67;;;12.07;;
14858;SDS011;7521;51.700;6.874;2024-01-10T17:03:11;25.80;;;11.20;;
14858;SDS011;7521;51.700;6.874;2024-01-10T17:06:16;25.73;;;11.93;;
14858;SDS011;7521;51.700;6.874;2024-01-10T17:09:22;25.27;;;12.10;;
14858;SDS011;7521;51.700;6.874;2024-01-10T17:12:27;26.10;;;11.82;;
14858;SDS011;7521;51.700;6.874;2024-01-10T17:15:32;29.15;;;15.63;;
14858;SDS011;7521;51.700;6.874;2024-01-10T17:18:37;25.83;;;12.32;;
14858;SDS011;7521;51.700;6.874;2024-01-10T17:21:43;26.13;;;14.07;;
14858;SDS011;7521;51.700;6.874;2024-01-10T17:24:48;29.97;;;15.43;;
14858;SDS011;7521;51.700;6.874;2024-01-10T17:27:53;82.37;;;49.03;;
14858;SDS011;7521;51.700;6.874;2024-01-10T17:30:58;34.92;;;17.33;;
14858;SDS011;7521;51.700;6.874;2024-01-10T17:34:04;31.47;;;14.60;;
14858;SDS011;7521;51.700;6.874;2024-01-10T17:37:09;25.13;;;13.57;;
14858;SDS011;7521;51.700;6.874;2024-01-10T17:40:14;23.77;;;12.13;;
14858;SDS011;7521;51.700;6.874;2024-01-10T17:43:19;36.28;;;19.05;;
14858;SDS011;7521;51.700;6.874;2024-01-10T17:46:24;30.43;;;15.07;;
14858;SDS011;7521;51.700;6.874;2024-01-10T17:49:29;29.38;;;13.82;;
14858;SDS011;7521;51.700;6.874;2024-01-10T17:52:35;25.98;;;14.15;;
14858;SDS011;7521;51.700;6.874;2024-01-10T17:55:40;32.60;;;18.73;;
14858;SDS011;7521;51.700;6.874;2024-01-10T17:58:45;37.87;;;21.37;;
14858;SDS011;7521;51.700;6.874;2024-01-10T18:01:50;26.17;;;13.63;;
14858;SDS011;7521;51.700;6.874;2024-01-10T18:04:55;28.47;;;13.37;;
14858;SDS011;7521;51.700;6.874;2024-01-10T18:08:00;39.25;;;18.33;;
14858;SDS011;7521;51.700;6.874;2024-01-10T18:11:06;28.63;;;14.55;;
14858;SDS011;7521;51.700;6.874;2024-01-10T18:14:11;31.13;;;13.98;;
14858;SDS011;7521;51.700;6.874;2024-01-10T18:17:16;27.60;;;14.43;;
14858;SDS011;7521;51.700;6.874;2024-01-10T18:20:21;32.70;;;15.65;;
14858;SDS011;7521;51.700;6.874;2024-01-10T18:23:27;31.93;;;15.83;;
14858;SDS011;7521;51.700;6.874;2024-01-10T18:26:32;28.07;;;14.40;;
14858;SDS011;7521;51.700;6.874;2024-01-10T18:29:38;37.23;;;18.97;;
14858;SDS011;7521;51.700;6.874;2024-01-10T18:32:43;35.85;;;18.48;;
14858;SDS011;7521;51.700;6.874;2024-01-10T18:35:48;36.08;;;17.63;;
14858;SDS011;7521;51.700;6.874;2024-01-10T18:38:55;28.00;;;14.37;;
14858;SDS011;7521;51.700;6.874;2024-01-10T18:42:00;31.77;;;16.55;;